PADL/DLG METAR and TAF weather

Enter ICAO airport designator
Station Type Date Time Source
PADL METAR 2019/08/25 19:56 UTC NOAA

PADL 251956Z 11004KT 10SM CLR 15/10 A2995 RMK AO2 SLP146 T01500100


Station Type Date Time Source
PADL Decoded METAR 2019/08/25 19:56 UTC NOAA

Station name not available
Aug 25, 2019 - 03:56 PM EDT / 2019.08.25 1956 UTC
Wind: from the ESE (110 degrees) at 5 MPH (4 KT):0
Visibility: 10 mile(s):0
Sky conditions: clear
Temperature: 59.0 F (15.0 C)
Dew Point: 50.0 F (10.0 C)
Relative Humidity: 72%
Pressure (altimeter): 29.95 in. Hg (1014 hPa)
ob: PADL 251956Z 11004KT 10SM CLR 15/10 A2995 RMK AO2 SLP146 T01500100
cycle: 20

Station Type Date Time Source
PADL TAF 2019/08/25 18:30 UTC NOAA

TAF PADL 251726Z 2518/2618 VRB05KT P6SM SKC

Example: see airport list